sensor_id;sensor_type;location;lat;lon;timestamp;P1;durP1;ratioP1;P2;durP2;ratioP2
20170;SDS011;10245;51.344;6.620;2024-03-02T00:00:17;3.17;;;1.60;;
20170;SDS011;10245;51.344;6.620;2024-03-02T00:02:44;2.85;;;1.70;;
20170;SDS011;10245;51.344;6.620;2024-03-02T00:05:09;3.78;;;1.60;;
20170;SDS011;10245;51.344;6.620;2024-03-02T00:07:35;4.53;;;1.80;;
20170;SDS011;10245;51.344;6.620;2024-03-02T00:09:58;3.72;;;1.67;;
20170;SDS011;10245;51.344;6.620;2024-03-02T00:12:22;5.60;;;1.40;;
20170;SDS011;10245;51.344;6.620;2024-03-02T00:14:45;3.10;;;1.70;;
20170;SDS011;10245;51.344;6.620;2024-03-02T00:17:09;1.67;;;1.30;;
20170;SDS011;10245;51.344;6.620;2024-03-02T00:19:45;2.55;;;1.63;;
20170;SDS011;10245;51.344;6.620;2024-03-02T00:22:09;2.20;;;1.48;;
20170;SDS011;10245;51.344;6.620;2024-03-02T00:24:33;2.67;;;1.40;;
20170;SDS011;10245;51.344;6.620;2024-03-02T00:26:57;3.33;;;1.63;;
20170;SDS011;10245;51.344;6.620;2024-03-02T00:29:20;2.55;;;1.58;;
20170;SDS011;10245;51.344;6.620;2024-03-02T00:31:44;3.15;;;1.85;;
20170;SDS011;10245;51.344;6.620;2024-03-02T00:34:06;2.13;;;1.45;;
20170;SDS011;10245;51.344;6.620;2024-03-02T00:36:33;6.78;;;1.67;;
20170;SDS011;10245;51.344;6.620;2024-03-02T00:38:57;4.13;;;1.95;;
20170;SDS011;10245;51.344;6.620;2024-03-02T00:41:21;2.60;;;1.60;;
20170;SDS011;10245;51.344;6.620;2024-03-02T00:43:49;2.38;;;1.73;;
20170;SDS011;10245;51.344;6.620;2024-03-02T00:46:21;3.28;;;1.70;;
20170;SDS011;10245;51.344;6.620;2024-03-02T00:48:47;2.97;;;1.60;;
20170;SDS011;10245;51.344;6.620;2024-03-02T00:51:16;2.00;;;1.67;;
20170;SDS011;10245;51.344;6.620;2024-03-02T00:53:41;4.70;;;1.75;;
20170;SDS011;10245;51.344;6.620;2024-03-02T00:56:05;2.53;;;1.55;;
20170;SDS011;10245;51.344;6.620;2024-03-02T00:58:34;2.83;;;1.80;;
20170;SDS011;10245;51.344;6.620;2024-03-02T01:00:58;2.33;;;1.52;;
20170;SDS011;10245;51.344;6.620;2024-03-02T01:03:21;1.75;;;1.50;;
20170;SDS011;10245;51.344;6.620;2024-03-02T01:05:45;4.60;;;1.63;;
20170;SDS011;10245;51.344;6.620;2024-03-02T01:08:08;3.30;;;1.35;;
20170;SDS011;10245;51.344;6.620;2024-03-02T01:10:34;3.15;;;1.65;;
20170;SDS011;10245;51.344;6.620;2024-03-02T01:12:57;2.45;;;1.33;;
20170;SDS011;10245;51.344;6.620;2024-03-02T01:15:21;6.47;;;1.80;;
20170;SDS011;10245;51.344;6.620;2024-03-02T01:17:45;4.13;;;1.50;;
20170;SDS011;10245;51.344;6.620;2024-03-02T01:20:09;1.77;;;1.40;;
20170;SDS011;10245;51.344;6.620;2024-03-02T01:22:34;3.17;;;1.75;;
20170;SDS011;10245;51.344;6.620;2024-03-02T01:24:57;3.47;;;1.70;;
20170;SDS011;10245;51.344;6.620;2024-03-02T01:27:22;2.13;;;1.50;;
20170;SDS011;10245;51.344;6.620;2024-03-02T01:29:46;2.20;;;1.50;;
20170;SDS011;10245;51.344;6.620;2024-03-02T01:32:09;1.48;;;1.27;;
20170;SDS011;10245;51.344;6.620;2024-03-02T01:34:33;4.63;;;1.55;;
20170;SDS011;10245;51.344;6.620;2024-03-02T01:36:56;2.13;;;1.83;;
20170;SDS011;10245;51.344;6.620;2024-03-02T01:39:19;3.78;;;1.58;;
20170;SDS011;10245;51.344;6.620;2024-03-02T01:41:43;3.08;;;1.90;;
20170;SDS011;10245;51.344;6.620;2024-03-02T01:44:07;2.33;;;1.60;;
20170;SDS011;10245;51.344;6.620;2024-03-02T01:46:31;3.42;;;1.60;;
20170;SDS011;10245;51.344;6.620;2024-03-02T01:48:54;3.30;;;1.80;;
20170;SDS011;10245;51.344;6.620;2024-03-02T01:51:17;2.47;;;1.80;;
20170;SDS011;10245;51.344;6.620;2024-03-02T01:53:41;2.20;;;1.30;;
20170;SDS011;10245;51.344;6.620;2024-03-02T01:56:05;2.10;;;1.52;;
20170;SDS011;10245;51.344;6.620;2024-03-02T01:58:28;3.60;;;1.73;;
20170;SDS011;10245;51.344;6.620;2024-03-02T02:00:53;2.60;;;1.70;;
20170;SDS011;10245;51.344;6.620;2024-03-02T02:03:16;2.40;;;1.70;;
20170;SDS011;10245;51.344;6.620;2024-03-02T02:05:41;3.72;;;1.80;;
20170;SDS011;10245;51.344;6.620;2024-03-02T02:08:05;2.17;;;1.58;;
20170;SDS011;10245;51.344;6.620;2024-03-02T02:10:28;3.30;;;1.75;;
20170;SDS011;10245;51.344;6.620;2024-03-02T02:12:52;4.15;;;1.90;;
20170;SDS011;10245;51.344;6.620;2024-03-02T02:15:23;2.95;;;1.60;;
20170;SDS011;10245;51.344;6.620;2024-03-02T02:17:49;3.42;;;1.67;;
20170;SDS011;10245;51.344;6.620;2024-03-02T02:20:12;1.92;;;1.40;;
20170;SDS011;10245;51.344;6.620;2024-03-02T02:22:37;3.28;;;1.73;;
20170;SDS011;10245;51.344;6.620;2024-03-02T02:25:00;4.32;;;1.80;;
20170;SDS011;10245;51.344;6.620;2024-03-02T02:27:25;3.83;;;1.90;;
20170;SDS011;10245;51.344;6.620;2024-03-02T02:29:48;3.22;;;1.55;;
20170;SDS011;10245;51.344;6.620;2024-03-02T02:32:11;4.20;;;1.75;;
20170;SDS011;10245;51.344;6.620;2024-03-02T02:34:34;3.63;;;1.45;;
20170;SDS011;10245;51.344;6.620;2024-03-02T02:36:57;4.13;;;1.80;;
20170;SDS011;10245;51.344;6.620;2024-03-02T02:39:22;2.75;;;1.70;;
20170;SDS011;10245;51.344;6.620;2024-03-02T02:41:46;2.42;;;1.50;;
20170;SDS011;10245;51.344;6.620;2024-03-02T02:44:09;4.13;;;1.70;;
20170;SDS011;10245;51.344;6.620;2024-03-02T02:46:34;3.67;;;1.70;;
20170;SDS011;10245;51.344;6.620;2024-03-02T02:48:57;3.78;;;1.73;;
20170;SDS011;10245;51.344;6.620;2024-03-02T02:51:21;3.40;;;1.80;;
20170;SDS011;10245;51.344;6.620;2024-03-02T02:53:45;3.13;;;1.83;;
20170;SDS011;10245;51.344;6.620;2024-03-02T02:56:09;2.65;;;1.80;;
20170;SDS011;10245;51.344;6.620;2024-03-02T02:58:33;5.28;;;2.45;;
20170;SDS011;10245;51.344;6.620;2024-03-02T03:00:56;4.43;;;1.80;;
20170;SDS011;10245;51.344;6.620;2024-03-02T03:03:20;3.10;;;1.73;;
20170;SDS011;10245;51.344;6.620;2024-03-02T03:05:43;2.85;;;1.98;;
20170;SDS011;10245;51.344;6.620;2024-03-02T03:08:06;2.85;;;1.83;;
20170;SDS011;10245;51.344;6.620;2024-03-02T03:10:30;5.28;;;1.90;;
20170;SDS011;10245;51.344;6.620;2024-03-02T03:12:56;3.15;;;1.65;;
20170;SDS011;10245;51.344;6.620;2024-03-02T03:15:20;5.22;;;2.05;;
20170;SDS011;10245;51.344;6.620;2024-03-02T03:17:43;1.90;;;1.70;;
20170;SDS011;10245;51.344;6.620;2024-03-02T03:20:08;4.93;;;2.25;;
20170;SDS011;10245;51.344;6.620;2024-03-02T03:22:33;3.47;;;1.73;;
20170;SDS011;10245;51.344;6.620;2024-03-02T03:24:57;2.42;;;1.77;;
20170;SDS011;10245;51.344;6.620;2024-03-02T03:27:21;3.22;;;1.90;;
20170;SDS011;10245;51.344;6.620;2024-03-02T03:29:46;4.68;;;2.17;;
20170;SDS011;10245;51.344;6.620;2024-03-02T03:32:09;3.47;;;2.20;;
20170;SDS011;10245;51.344;6.620;2024-03-02T03:34:32;3.53;;;1.75;;
20170;SDS011;10245;51.344;6.620;2024-03-02T03:36:56;3.42;;;1.90;;
20170;SDS011;10245;51.344;6.620;2024-03-02T03:39:20;3.15;;;1.38;;
20170;SDS011;10245;51.344;6.620;2024-03-02T03:41:43;2.63;;;1.77;;
20170;SDS011;10245;51.344;6.620;2024-03-02T03:44:06;3.55;;;1.88;;
20170;SDS011;10245;51.344;6.620;2024-03-02T03:46:31;3.75;;;2.00;;
20170;SDS011;10245;51.344;6.620;2024-03-02T03:48:54;5.03;;;1.75;;
20170;SDS011;10245;51.344;6.620;2024-03-02T03:51:18;3.95;;;1.77;;
20170;SDS011;10245;51.344;6.620;2024-03-02T03:53:41;4.97;;;1.60;;
20170;SDS011;10245;51.344;6.620;2024-03-02T03:56:05;1.67;;;1.30;;
20170;SDS011;10245;51.344;6.620;2024-03-02T03:58:29;2.97;;;1.60;;
20170;SDS011;10245;51.344;6.620;2024-03-02T04:00:52;1.40;;;1.30;;
20170;SDS011;10245;51.344;6.620;2024-03-02T04:03:17;1.70;;;1.13;;
20170;SDS011;10245;51.344;6.620;2024-03-02T04:05:40;1.48;;;1.27;;
20170;SDS011;10245;51.344;6.620;2024-03-02T04:08:04;2.20;;;1.30;;
20170;SDS011;10245;51.344;6.620;2024-03-02T04:10:27;1.33;;;1.10;;
20170;SDS011;10245;51.344;6.620;2024-03-02T04:12:51;1.10;;;1.00;;
20170;SDS011;10245;51.344;6.620;2024-03-02T04:15:15;0.93;;;0.88;;
20170;SDS011;10245;51.344;6.620;2024-03-02T04:17:40;2.35;;;1.25;;
20170;SDS011;10245;51.344;6.620;2024-03-02T04:20:05;2.97;;;1.20;;
20170;SDS011;10245;51.344;6.620;2024-03-02T04:22:30;3.85;;;1.58;;
20170;SDS011;10245;51.344;6.620;2024-03-02T04:24:55;2.10;;;1.10;;
20170;SDS011;10245;51.344;6.620;2024-03-02T04:27:19;1.90;;;1.30;;
20170;SDS011;10245;51.344;6.620;2024-03-02T04:29:42;2.90;;;1.40;;
20170;SDS011;10245;51.344;6.620;2024-03-02T04:32:06;2.88;;;1.52;;
20170;SDS011;10245;51.344;6.620;2024-03-02T04:34:29;3.08;;;1.60;;
20170;SDS011;10245;51.344;6.620;2024-03-02T04:36:55;3.55;;;1.83;;
20170;SDS011;10245;51.344;6.620;2024-03-02T04:39:18;3.00;;;1.40;;
20170;SDS011;10245;51.344;6.620;2024-03-02T04:41:41;3.05;;;1.58;;
20170;SDS011;10245;51.344;6.620;2024-03-02T04:44:05;2.75;;;1.67;;
20170;SDS011;10245;51.344;6.620;2024-03-02T04:46:29;4.30;;;1.63;;
20170;SDS011;10245;51.344;6.620;2024-03-02T04:48:54;1.65;;;1.48;;
20170;SDS011;10245;51.344;6.620;2024-03-02T04:51:18;4.05;;;1.70;;
20170;SDS011;10245;51.344;6.620;2024-03-02T04:53:44;2.33;;;1.60;;
20170;SDS011;10245;51.344;6.620;2024-03-02T04:56:07;3.50;;;1.42;;
20170;SDS011;10245;51.344;6.620;2024-03-02T04:59:00;2.13;;;1.48;;
20170;SDS011;10245;51.344;6.620;2024-03-02T05:01:23;3.38;;;1.60;;
20170;SDS011;10245;51.344;6.620;2024-03-02T05:04:02;2.78;;;1.40;;
20170;SDS011;10245;51.344;6.620;2024-03-02T05:06:25;2.00;;;1.48;;
20170;SDS011;10245;51.344;6.620;2024-03-02T05:08:50;2.15;;;1.48;;
20170;SDS011;10245;51.344;6.620;2024-03-02T05:11:14;2.28;;;1.48;;
20170;SDS011;10245;51.344;6.620;2024-03-02T05:13:55;2.22;;;1.70;;
20170;SDS011;10245;51.344;6.620;2024-03-02T05:16:19;2.33;;;1.55;;
20170;SDS011;10245;51.344;6.620;2024-03-02T05:18:43;2.08;;;1.63;;
20170;SDS011;10245;51.344;6.620;2024-03-02T05:21:07;2.33;;;1.75;;
20170;SDS011;10245;51.344;6.620;2024-03-02T05:23:30;2.30;;;1.50;;
20170;SDS011;10245;51.344;6.620;2024-03-02T05:25:55;3.88;;;1.70;;
20170;SDS011;10245;51.344;6.620;2024-03-02T05:28:18;3.90;;;2.00;;
20170;SDS011;10245;51.344;6.620;2024-03-02T05:30:42;2.10;;;1.75;;
20170;SDS011;10245;51.344;6.620;2024-03-02T05:33:05;3.08;;;1.60;;
20170;SDS011;10245;51.344;6.620;2024-03-02T05:35:30;3.35;;;1.70;;
20170;SDS011;10245;51.344;6.620;2024-03-02T05:37:54;3.53;;;1.90;;
20170;SDS011;10245;51.344;6.620;2024-03-02T05:40:17;3.22;;;1.90;;
20170;SDS011;10245;51.344;6.620;2024-03-02T05:42:45;2.30;;;1.90;;
20170;SDS011;10245;51.344;6.620;2024-03-02T05:45:09;5.25;;;2.08;;
20170;SDS011;10245;51.344;6.620;2024-03-02T05:47:32;3.53;;;1.90;;
20170;SDS011;10245;51.344;6.620;2024-03-02T05:49:55;3.88;;;2.40;;
20170;SDS011;10245;51.344;6.620;2024-03-02T05:52:19;2.50;;;1.95;;
20170;SDS011;10245;51.344;6.620;2024-03-02T05:54:42;5.75;;;2.42;;
20170;SDS011;10245;51.344;6.620;2024-03-02T05:57:05;6.70;;;2.22;;
20170;SDS011;10245;51.344;6.620;2024-03-02T05:59:50;4.35;;;2.28;;
20170;SDS011;10245;51.344;6.620;2024-03-02T06:02:13;3.95;;;1.92;;
20170;SDS011;10245;51.344;6.620;2024-03-02T06:04:37;4.32;;;2.42;;
20170;SDS011;10245;51.344;6.620;2024-03-02T06:07:01;4.63;;;2.40;;
20170;SDS011;10245;51.344;6.620;2024-03-02T06:09:25;3.65;;;2.53;;
20170;SDS011;10245;51.344;6.620;2024-03-02T06:11:48;4.28;;;2.17;;
20170;SDS011;10245;51.344;6.620;2024-03-02T06:14:12;7.28;;;2.40;;
20170;SDS011;10245;51.344;6.620;2024-03-02T06:16:36;2.47;;;2.05;;
20170;SDS011;10245;51.344;6.620;2024-03-02T06:19:00;4.38;;;2.22;;
20170;SDS011;10245;51.344;6.620;2024-03-02T06:21:24;2.65;;;2.03;;
20170;SDS011;10245;51.344;6.620;2024-03-02T06:23:48;2.05;;;1.77;;
20170;SDS011;10245;51.344;6.620;2024-03-02T06:26:12;4.28;;;2.53;;
20170;SDS011;10245;51.344;6.620;2024-03-02T06:28:35;2.50;;;1.98;;
20170;SDS011;10245;51.344;6.620;2024-03-02T06:30:58;2.08;;;1.80;;
20170;SDS011;10245;51.344;6.620;2024-03-02T06:33:23;4.10;;;2.17;;
20170;SDS011;10245;51.344;6.620;2024-03-02T06:35:47;3.67;;;2.25;;
20170;SDS011;10245;51.344;6.620;2024-03-02T06:38:11;3.20;;;2.00;;
20170;SDS011;10245;51.344;6.620;2024-03-02T06:40:35;5.75;;;2.10;;
20170;SDS011;10245;51.344;6.620;2024-03-02T06:43:00;4.93;;;2.75;;
20170;SDS011;10245;51.344;6.620;2024-03-02T06:45:24;4.22;;;2.30;;
20170;SDS011;10245;51.344;6.620;2024-03-02T06:47:48;3.83;;;2.10;;
20170;SDS011;10245;51.344;6.620;2024-03-02T06:50:12;6.35;;;2.67;;
20170;SDS011;10245;51.344;6.620;2024-03-02T06:52:36;5.35;;;3.30;;
20170;SDS011;10245;51.344;6.620;2024-03-02T06:55:00;7.53;;;3.58;;
20170;SDS011;10245;51.344;6.620;2024-03-02T06:57:23;4.05;;;2.90;;
20170;SDS011;10245;51.344;6.620;2024-03-02T06:59:46;4.03;;;2.72;;
20170;SDS011;10245;51.344;6.620;2024-03-02T07:02:11;4.93;;;2.70;;
20170;SDS011;10245;51.344;6.620;2024-03-02T07:04:35;5.93;;;3.33;;
20170;SDS011;10245;51.344;6.620;2024-03-02T07:06:59;5.50;;;3.28;;
20170;SDS011;10245;51.344;6.620;2024-03-02T07:09:23;7.53;;;2.92;;
20170;SDS011;10245;51.344;6.620;2024-03-02T07:11:47;4.50;;;2.45;;
20170;SDS011;10245;51.344;6.620;2024-03-02T07:14:12;5.88;;;2.70;;
20170;SDS011;10245;51.344;6.620;2024-03-02T07:16:37;6.75;;;2.58;;
20170;SDS011;10245;51.344;6.620;2024-03-02T07:19:02;3.97;;;2.20;;
20170;SDS011;10245;51.344;6.620;2024-03-02T07:21:25;5.65;;;2.63;;
20170;SDS011;10245;51.344;6.620;2024-03-02T07:23:50;4.20;;;2.00;;
20170;SDS011;10245;51.344;6.620;2024-03-02T07:26:13;5.35;;;2.55;;
20170;SDS011;10245;51.344;6.620;2024-03-02T07:28:43;5.13;;;2.58;;
20170;SDS011;10245;51.344;6.620;2024-03-02T07:31:06;5.35;;;2.78;;
20170;SDS011;10245;51.344;6.620;2024-03-02T07:33:31;4.75;;;2.10;;
20170;SDS011;10245;51.344;6.620;2024-03-02T07:35:55;5.82;;;2.60;;
20170;SDS011;10245;51.344;6.620;2024-03-02T07:38:19;4.35;;;2.40;;
20170;SDS011;10245;51.344;6.620;2024-03-02T07:40:45;5.28;;;2.50;;
20170;SDS011;10245;51.344;6.620;2024-03-02T07:43:08;3.05;;;2.30;;
20170;SDS011;10245;51.344;6.620;2024-03-02T07:45:32;7.90;;;2.90;;
20170;SDS011;10245;51.344;6.620;2024-03-02T07:47:57;4.20;;;2.10;;
20170;SDS011;10245;51.344;6.620;2024-03-02T07:50:20;5.28;;;2.30;;
20170;SDS011;10245;51.344;6.620;2024-03-02T07:52:43;4.70;;;2.65;;
20170;SDS011;10245;51.344;6.620;2024-03-02T07:55:08;5.10;;;2.20;;
20170;SDS011;10245;51.344;6.620;2024-03-02T07:57:32;5.68;;;2.60;;
20170;SDS011;10245;51.344;6.620;2024-03-02T07:59:56;6.75;;;2.60;;
20170;SDS011;10245;51.344;6.620;2024-03-02T08:02:20;3.85;;;2.83;;
20170;SDS011;10245;51.344;6.620;2024-03-02T08:04:44;7.03;;;2.92;;
20170;SDS011;10245;51.344;6.620;2024-03-02T08:07:08;4.20;;;2.60;;
20170;SDS011;10245;51.344;6.620;2024-03-02T08:09:31;7.30;;;3.28;;
20170;SDS011;10245;51.344;6.620;2024-03-02T08:11:55;10.02;;;3.70;;
20170;SDS011;10245;51.344;6.620;2024-03-02T08:14:20;6.45;;;3.08;;
20170;SDS011;10245;51.344;6.620;2024-03-02T08:16:43;4.95;;;2.50;;
20170;SDS011;10245;51.344;6.620;2024-03-02T08:19:08;6.25;;;2.33;;
20170;SDS011;10245;51.344;6.620;2024-03-02T08:21:31;4.78;;;2.85;;
20170;SDS011;10245;51.344;6.620;2024-03-02T08:23:56;4.15;;;2.50;;
20170;SDS011;10245;51.344;6.620;2024-03-02T08:26:20;5.22;;;2.20;;
20170;SDS011;10245;51.344;6.620;2024-03-02T08:28:43;2.90;;;2.20;;
20170;SDS011;10245;51.344;6.620;2024-03-02T08:31:08;3.63;;;2.30;;
20170;SDS011;10245;51.344;6.620;2024-03-02T08:33:32;4.78;;;2.13;;
20170;SDS011;10245;51.344;6.620;2024-03-02T08:35:58;4.32;;;2.45;;
20170;SDS011;10245;51.344;6.620;2024-03-02T08:38:21;4.50;;;2.47;;
20170;SDS011;10245;51.344;6.620;2024-03-02T08:40:45;4.55;;;2.35;;
20170;SDS011;10245;51.344;6.620;2024-03-02T08:43:10;2.78;;;2.00;;
20170;SDS011;10245;51.344;6.620;2024-03-02T08:45:33;2.45;;;2.00;;
20170;SDS011;10245;51.344;6.620;2024-03-02T08:47:58;3.80;;;2.40;;
20170;SDS011;10245;51.344;6.620;2024-03-02T08:50:22;2.53;;;1.73;;
20170;SDS011;10245;51.344;6.620;2024-03-02T08:52:45;5.07;;;2.03;;
20170;SDS011;10245;51.344;6.620;2024-03-02T08:55:08;2.78;;;1.98;;
20170;SDS011;10245;51.344;6.620;2024-03-02T08:57:32;4.90;;;2.20;;
20170;SDS011;10245;51.344;6.620;2024-03-02T08:59:56;4.55;;;1.75;;
20170;SDS011;10245;51.344;6.620;2024-03-02T09:02:19;3.42;;;1.85;;
20170;SDS011;10245;51.344;6.620;2024-03-02T09:04:44;6.53;;;1.90;;
20170;SDS011;10245;51.344;6.620;2024-03-02T09:07:07;2.88;;;1.52;;
20170;SDS011;10245;51.344;6.620;2024-03-02T09:09:31;3.10;;;1.73;;
20170;SDS011;10245;51.344;6.620;2024-03-02T09:11:54;3.75;;;1.80;;
20170;SDS011;10245;51.344;6.620;2024-03-02T09:14:19;2.38;;;1.65;;
20170;SDS011;10245;51.344;6.620;2024-03-02T09:16:42;2.30;;;1.45;;
20170;SDS011;10245;51.344;6.620;2024-03-02T09:19:06;2.17;;;1.58;;
20170;SDS011;10245;51.344;6.620;2024-03-02T09:21:31;3.92;;;1.60;;
20170;SDS011;10245;51.344;6.620;2024-03-02T09:23:56;2.53;;;1.70;;
20170;SDS011;10245;51.344;6.620;2024-03-02T09:26:19;2.78;;;1.33;;
20170;SDS011;10245;51.344;6.620;2024-03-02T09:28:43;3.35;;;1.85;;
20170;SDS011;10245;51.344;6.620;2024-03-02T09:31:07;2.80;;;1.55;;
20170;SDS011;10245;51.344;6.620;2024-03-02T09:33:30;4.35;;;1.85;;
20170;SDS011;10245;51.344;6.620;2024-03-02T09:35:54;1.92;;;1.20;;
20170;SDS011;10245;51.344;6.620;2024-03-02T09:38:18;5.10;;;1.50;;
20170;SDS011;10245;51.344;6.620;2024-03-02T09:40:42;1.88;;;1.23;;
20170;SDS011;10245;51.344;6.620;2024-03-02T09:43:05;1.83;;;1.23;;
20170;SDS011;10245;51.344;6.620;2024-03-02T09:45:29;2.60;;;1.50;;
20170;SDS011;10245;51.344;6.620;2024-03-02T09:47:54;2.85;;;1.38;;
20170;SDS011;10245;51.344;6.620;2024-03-02T09:50:17;2.17;;;1.35;;
20170;SDS011;10245;51.344;6.620;2024-03-02T09:52:41;4.38;;;1.20;;
20170;SDS011;10245;51.344;6.620;2024-03-02T09:55:07;2.80;;;1.27;;
20170;SDS011;10245;51.344;6.620;2024-03-02T09:57:31;2.83;;;1.13;;
20170;SDS011;10245;51.344;6.620;2024-03-02T09:59:54;2.65;;;1.20;;
20170;SDS011;10245;51.344;6.620;2024-03-02T10:02:18;1.83;;;1.30;;
20170;SDS011;10245;51.344;6.620;2024-03-02T10:04:41;3.08;;;1.30;;
20170;SDS011;10245;51.344;6.620;2024-03-02T10:07:13;2.10;;;1.02;;
20170;SDS011;10245;51.344;6.620;2024-03-02T10:09:37;3.72;;;1.08;;
20170;SDS011;10245;51.344;6.620;2024-03-02T10:12:04;1.88;;;1.10;;
20170;SDS011;10245;51.344;6.620;2024-03-02T10:14:29;3.35;;;1.20;;
20170;SDS011;10245;51.344;6.620;2024-03-02T10:16:53;2.10;;;1.10;;
20170;SDS011;10245;51.344;6.620;2024-03-02T10:19:25;1.48;;;0.90;;
20170;SDS011;10245;51.344;6.620;2024-03-02T10:21:48;4.43;;;1.30;;
20170;SDS011;10245;51.344;6.620;2024-03-02T10:24:13;3.35;;;1.65;;
20170;SDS011;10245;51.344;6.620;2024-03-02T10:26:36;4.03;;;1.10;;
20170;SDS011;10245;51.344;6.620;2024-03-02T10:29:01;2.65;;;1.10;;
20170;SDS011;10245;51.344;6.620;2024-03-02T10:31:24;2.78;;;1.00;;
20170;SDS011;10245;51.344;6.620;2024-03-02T10:33:49;3.33;;;0.88;;
20170;SDS011;10245;51.344;6.620;2024-03-02T10:36:12;2.85;;;0.98;;
20170;SDS011;10245;51.344;6.620;2024-03-02T10:38:36;2.13;;;0.93;;
20170;SDS011;10245;51.344;6.620;2024-03-02T10:41:02;5.95;;;0.82;;
20170;SDS011;10245;51.344;6.620;2024-03-02T10:43:25;3.38;;;1.10;;
20170;SDS011;10245;51.344;6.620;2024-03-02T10:45:51;3.83;;;1.10;;
20170;SDS011;10245;51.344;6.620;2024-03-02T10:48:16;3.47;;;1.20;;
20170;SDS011;10245;51.344;6.620;2024-03-02T10:50:41;1.85;;;1.10;;
20170;SDS011;10245;51.344;6.620;2024-03-02T10:53:04;4.20;;;1.30;;
20170;SDS011;10245;51.344;6.620;2024-03-02T10:55:28;4.22;;;1.10;;
20170;SDS011;10245;51.344;6.620;2024-03-02T10:57:52;3.55;;;1.10;;
20170;SDS011;10245;51.344;6.620;2024-03-02T11:00:19;2.55;;;1.08;;
20170;SDS011;10245;51.344;6.620;2024-03-02T11:02:50;1.35;;;0.88;;
20170;SDS011;10245;51.344;6.620;2024-03-02T11:05:20;2.17;;;1.20;;
20170;SDS011;10245;51.344;6.620;2024-03-02T11:07:50;2.05;;;1.08;;
20170;SDS011;10245;51.344;6.620;2024-03-02T11:10:16;3.63;;;1.05;;
20170;SDS011;10245;51.344;6.620;2024-03-02T11:12:41;3.60;;;1.25;;
20170;SDS011;10245;51.344;6.620;2024-03-02T11:15:11;1.38;;;0.90;;
20170;SDS011;10245;51.344;6.620;2024-03-02T11:17:40;4.03;;;1.23;;
20170;SDS011;10245;51.344;6.620;2024-03-02T11:20:07;1.77;;;1.00;;
20170;SDS011;10245;51.344;6.620;2024-03-02T11:22:32;5.10;;;1.30;;
20170;SDS011;10245;51.344;6.620;2024-03-02T11:24:57;3.72;;;1.15;;
20170;SDS011;10245;51.344;6.620;2024-03-02T11:33:11;3.08;;;1.20;;
20170;SDS011;10245;51.344;6.620;2024-03-02T11:35:38;2.33;;;1.00;;
20170;SDS011;10245;51.344;6.620;2024-03-02T11:38:05;3.00;;;0.90;;
20170;SDS011;10245;51.344;6.620;2024-03-02T11:40:36;1.92;;;1.05;;
20170;SDS011;10245;51.344;6.620;2024-03-02T11:43:02;2.33;;;0.80;;
20170;SDS011;10245;51.344;6.620;2024-03-02T11:45:29;2.08;;;0.85;;
20170;SDS011;10245;51.344;6.620;2024-03-02T11:47:55;3.30;;;1.20;;
20170;SDS011;10245;51.344;6.620;2024-03-02T11:50:28;1.50;;;0.93;;
20170;SDS011;10245;51.344;6.620;2024-03-02T11:52:53;2.97;;;0.80;;
20170;SDS011;10245;51.344;6.620;2024-03-02T11:55:16;2.17;;;1.13;;
20170;SDS011;10245;51.344;6.620;2024-03-02T11:57:42;4.35;;;1.13;;
20170;SDS011;10245;51.344;6.620;2024-03-02T12:00:06;2.38;;;0.98;;
20170;SDS011;10245;51.344;6.620;2024-03-02T12:02:40;2.92;;;0.80;;
20170;SDS011;10245;51.344;6.620;2024-03-02T12:05:09;2.55;;;0.90;;
20170;SDS011;10245;51.344;6.620;2024-03-02T12:07:32;3.08;;;1.15;;
20170;SDS011;10245;51.344;6.620;2024-03-02T12:10:00;2.65;;;1.00;;
20170;SDS011;10245;51.344;6.620;2024-03-02T12:12:25;3.63;;;1.10;;
20170;SDS011;10245;51.344;6.620;2024-03-02T12:14:52;3.22;;;1.20;;
20170;SDS011;10245;51.344;6.620;2024-03-02T12:17:17;3.72;;;0.93;;
20170;SDS011;10245;51.344;6.620;2024-03-02T12:19:41;2.35;;;0.80;;
20170;SDS011;10245;51.344;6.620;2024-03-02T12:22:04;2.17;;;0.80;;
20170;SDS011;10245;51.344;6.620;2024-03-02T12:24:28;2.47;;;1.10;;
20170;SDS011;10245;51.344;6.620;2024-03-02T12:26:53;2.13;;;1.10;;
20170;SDS011;10245;51.344;6.620;2024-03-02T12:29:18;3.65;;;1.02;;
20170;SDS011;10245;51.344;6.620;2024-03-02T12:31:42;1.65;;;1.00;;
20170;SDS011;10245;51.344;6.620;2024-03-02T12:34:06;3.90;;;1.10;;
20170;SDS011;10245;51.344;6.620;2024-03-02T12:36:30;3.22;;;1.08;;
20170;SDS011;10245;51.344;6.620;2024-03-02T12:39:00;2.00;;;1.00;;
20170;SDS011;10245;51.344;6.620;2024-03-02T12:41:24;2.47;;;1.20;;
20170;SDS011;10245;51.344;6.620;2024-03-02T12:43:50;1.83;;;1.10;;
20170;SDS011;10245;51.344;6.620;2024-03-02T12:46:13;1.33;;;0.90;;
20170;SDS011;10245;51.344;6.620;2024-03-02T12:48:38;3.60;;;1.20;;
20170;SDS011;10245;51.344;6.620;2024-03-02T12:51:03;4.57;;;1.20;;
20170;SDS011;10245;51.344;6.620;2024-03-02T12:53:27;3.40;;;0.93;;
20170;SDS011;10245;51.344;6.620;2024-03-02T12:55:50;2.67;;;1.17;;
20170;SDS011;10245;51.344;6.620;2024-03-02T12:58:17;1.52;;;1.00;;
20170;SDS011;10245;51.344;6.620;2024-03-02T13:00:42;2.65;;;1.15;;
20170;SDS011;10245;51.344;6.620;2024-03-02T13:03:06;1.65;;;1.05;;
20170;SDS011;10245;51.344;6.620;2024-03-02T13:05:29;3.28;;;0.95;;
20170;SDS011;10245;51.344;6.620;2024-03-02T13:07:54;1.35;;;0.98;;
20170;SDS011;10245;51.344;6.620;2024-03-02T13:10:17;1.50;;;1.10;;
20170;SDS011;10245;51.344;6.620;2024-03-02T13:12:41;1.85;;;1.20;;
20170;SDS011;10245;51.344;6.620;2024-03-02T13:15:05;3.05;;;1.17;;
20170;SDS011;10245;51.344;6.620;2024-03-02T13:17:30;3.55;;;1.13;;
20170;SDS011;10245;51.344;6.620;2024-03-02T13:19:59;3.03;;;1.27;;
20170;SDS011;10245;51.344;6.620;2024-03-02T13:22:25;3.47;;;1.30;;
20170;SDS011;10245;51.344;6.620;2024-03-02T13:24:49;2.80;;;1.02;;
20170;SDS011;10245;51.344;6.620;2024-03-02T13:27:12;2.53;;;1.08;;
20170;SDS011;10245;51.344;6.620;2024-03-02T13:29:37;2.13;;;1.30;;
20170;SDS011;10245;51.344;6.620;2024-03-02T13:32:00;3.72;;;1.20;;
20170;SDS011;10245;51.344;6.620;2024-03-02T13:34:25;2.90;;;1.20;;
20170;SDS011;10245;51.344;6.620;2024-03-02T13:36:48;2.13;;;1.20;;
20170;SDS011;10245;51.344;6.620;2024-03-02T13:39:12;1.77;;;1.05;;
20170;SDS011;10245;51.344;6.620;2024-03-02T13:41:37;2.25;;;0.90;;
20170;SDS011;10245;51.344;6.620;2024-03-02T13:44:00;2.83;;;1.13;;
20170;SDS011;10245;51.344;6.620;2024-03-02T13:46:24;4.03;;;1.50;;
20170;SDS011;10245;51.344;6.620;2024-03-02T13:48:47;3.55;;;1.50;;
20170;SDS011;10245;51.344;6.620;2024-03-02T13:51:12;2.63;;;1.23;;
20170;SDS011;10245;51.344;6.620;2024-03-02T13:53:35;2.42;;;1.50;;
20170;SDS011;10245;51.344;6.620;2024-03-02T13:55:58;2.38;;;1.30;;
20170;SDS011;10245;51.344;6.620;2024-03-02T13:58:22;2.85;;;1.13;;
20170;SDS011;10245;51.344;6.620;2024-03-02T14:00:45;1.10;;;1.00;;
20170;SDS011;10245;51.344;6.620;2024-03-02T14:03:09;1.63;;;1.20;;
20170;SDS011;10245;51.344;6.620;2024-03-02T14:05:32;1.25;;;1.05;;
20170;SDS011;10245;51.344;6.620;2024-03-02T14:07:57;1.40;;;1.23;;
20170;SDS011;10245;51.344;6.620;2024-03-02T14:10:21;4.05;;;1.17;;
20170;SDS011;10245;51.344;6.620;2024-03-02T14:12:45;3.47;;;1.30;;
20170;SDS011;10245;51.344;6.620;2024-03-02T14:15:09;1.08;;;0.90;;
20170;SDS011;10245;51.344;6.620;2024-03-02T14:17:32;3.25;;;1.40;;
20170;SDS011;10245;51.344;6.620;2024-03-02T14:19:56;2.58;;;1.52;;
20170;SDS011;10245;51.344;6.620;2024-03-02T14:22:20;1.60;;;1.10;;
20170;SDS011;10245;51.344;6.620;2024-03-02T14:24:45;2.45;;;1.02;;
20170;SDS011;10245;51.344;6.620;2024-03-02T14:27:09;1.63;;;1.23;;
20170;SDS011;10245;51.344;6.620;2024-03-02T14:29:49;2.10;;;1.10;;
20170;SDS011;10245;51.344;6.620;2024-03-02T14:32:12;3.20;;;1.30;;
20170;SDS011;10245;51.344;6.620;2024-03-02T14:34:35;1.55;;;1.00;;
20170;SDS011;10245;51.344;6.620;2024-03-02T14:37:01;1.95;;;1.23;;